sensor_id;sensor_type;location;lat;lon;timestamp;P1;durP1;ratioP1;P2;durP2;ratioP2
8536;SDS011;4306;50.210;10.628;2023-08-12T00:01:36;7.22;;;3.40;;
8536;SDS011;4306;50.210;10.628;2023-08-12T00:04:04;7.22;;;3.45;;
8536;SDS011;4306;50.210;10.628;2023-08-12T00:06:31;4.82;;;3.33;;
8536;SDS011;4306;50.210;10.628;2023-08-12T00:08:58;4.70;;;3.50;;
8536;SDS011;4306;50.210;10.628;2023-08-12T00:11:25;6.70;;;3.95;;
8536;SDS011;4306;50.210;10.628;2023-08-12T00:13:52;3.72;;;2.90;;
8536;SDS011;4306;50.210;10.628;2023-08-12T00:16:19;4.35;;;2.75;;
8536;SDS011;4306;50.210;10.628;2023-08-12T00:18:47;4.38;;;3.08;;
8536;SDS011;4306;50.210;10.628;2023-08-12T00:21:14;4.13;;;3.15;;
8536;SDS011;4306;50.210;10.628;2023-08-12T00:23:41;7.43;;;3.10;;
8536;SDS011;4306;50.210;10.628;2023-08-12T00:26:09;6.18;;;2.92;;
8536;SDS011;4306;50.210;10.628;2023-08-12T00:28:36;6.15;;;3.22;;
8536;SDS011;4306;50.210;10.628;2023-08-12T00:31:03;9.65;;;3.60;;
8536;SDS011;4306;50.210;10.628;2023-08-12T00:33:30;4.75;;;2.95;;
8536;SDS011;4306;50.210;10.628;2023-08-12T00:35:59;6.15;;;3.15;;
8536;SDS011;4306;50.210;10.628;2023-08-12T00:38:26;4.57;;;2.65;;
8536;SDS011;4306;50.210;10.628;2023-08-12T00:40:53;4.85;;;3.13;;
8536;SDS011;4306;50.210;10.628;2023-08-12T00:43:20;8.20;;;3.47;;
8536;SDS011;4306;50.210;10.628;2023-08-12T00:45:47;6.90;;;3.55;;
8536;SDS011;4306;50.210;10.628;2023-08-12T00:48:14;3.63;;;2.80;;
8536;SDS011;4306;50.210;10.628;2023-08-12T00:50:43;7.63;;;3.00;;
8536;SDS011;4306;50.210;10.628;2023-08-12T00:53:12;5.00;;;3.03;;
8536;SDS011;4306;50.210;10.628;2023-08-12T00:55:40;5.18;;;3.08;;
8536;SDS011;4306;50.210;10.628;2023-08-12T00:58:07;6.95;;;2.70;;
8536;SDS011;4306;50.210;10.628;2023-08-12T01:00:35;5.03;;;3.15;;
8536;SDS011;4306;50.210;10.628;2023-08-12T01:03:02;4.05;;;3.28;;
8536;SDS011;4306;50.210;10.628;2023-08-12T01:05:31;4.43;;;3.05;;
8536;SDS011;4306;50.210;10.628;2023-08-12T01:07:59;6.45;;;3.17;;
8536;SDS011;4306;50.210;10.628;2023-08-12T01:10:29;5.30;;;3.65;;
8536;SDS011;4306;50.210;10.628;2023-08-12T01:13:05;6.55;;;3.45;;
8536;SDS011;4306;50.210;10.628;2023-08-12T01:15:43;4.30;;;3.20;;
8536;SDS011;4306;50.210;10.628;2023-08-12T01:18:10;7.03;;;3.38;;
8536;SDS011;4306;50.210;10.628;2023-08-12T01:20:38;9.07;;;3.53;;
8536;SDS011;4306;50.210;10.628;2023-08-12T01:23:09;5.30;;;3.67;;
8536;SDS011;4306;50.210;10.628;2023-08-12T01:25:38;7.68;;;3.90;;
8536;SDS011;4306;50.210;10.628;2023-08-12T01:28:05;6.03;;;2.90;;
8536;SDS011;4306;50.210;10.628;2023-08-12T01:30:33;5.00;;;3.35;;
8536;SDS011;4306;50.210;10.628;2023-08-12T01:33:07;6.82;;;3.47;;
8536;SDS011;4306;50.210;10.628;2023-08-12T01:35:39;4.10;;;3.33;;
8536;SDS011;4306;50.210;10.628;2023-08-12T01:38:11;4.22;;;3.17;;
8536;SDS011;4306;50.210;10.628;2023-08-12T01:40:38;4.30;;;3.28;;
8536;SDS011;4306;50.210;10.628;2023-08-12T01:43:06;6.25;;;3.55;;
8536;SDS011;4306;50.210;10.628;2023-08-12T01:45:34;5.18;;;3.78;;
8536;SDS011;4306;50.210;10.628;2023-08-12T01:48:01;6.10;;;3.78;;
8536;SDS011;4306;50.210;10.628;2023-08-12T01:50:28;7.75;;;3.70;;
8536;SDS011;4306;50.210;10.628;2023-08-12T01:52:55;5.45;;;3.67;;
8536;SDS011;4306;50.210;10.628;2023-08-12T01:55:24;5.03;;;3.65;;
8536;SDS011;4306;50.210;10.628;2023-08-12T01:57:51;4.38;;;3.25;;
8536;SDS011;4306;50.210;10.628;2023-08-12T02:00:18;6.85;;;3.80;;
8536;SDS011;4306;50.210;10.628;2023-08-12T02:02:45;5.97;;;3.40;;
8536;SDS011;4306;50.210;10.628;2023-08-12T02:05:12;4.70;;;3.30;;
8536;SDS011;4306;50.210;10.628;2023-08-12T02:07:40;5.63;;;3.20;;
8536;SDS011;4306;50.210;10.628;2023-08-12T02:10:07;4.65;;;3.25;;
8536;SDS011;4306;50.210;10.628;2023-08-12T02:12:35;5.85;;;3.03;;
8536;SDS011;4306;50.210;10.628;2023-08-12T02:15:02;4.32;;;3.38;;
8536;SDS011;4306;50.210;10.628;2023-08-12T02:17:30;4.78;;;3.53;;
8536;SDS011;4306;50.210;10.628;2023-08-12T02:19:57;6.05;;;3.72;;
8536;SDS011;4306;50.210;10.628;2023-08-12T02:22:24;11.30;;;3.83;;
8536;SDS011;4306;50.210;10.628;2023-08-12T02:24:51;4.53;;;3.28;;
8536;SDS011;4306;50.210;10.628;2023-08-12T02:27:18;5.47;;;3.17;;
8536;SDS011;4306;50.210;10.628;2023-08-12T02:29:46;5.63;;;3.60;;
8536;SDS011;4306;50.210;10.628;2023-08-12T02:32:14;7.15;;;3.70;;
8536;SDS011;4306;50.210;10.628;2023-08-12T02:34:41;6.85;;;3.70;;
8536;SDS011;4306;50.210;10.628;2023-08-12T02:37:08;5.25;;;3.63;;
8536;SDS011;4306;50.210;10.628;2023-08-12T02:39:35;5.13;;;3.50;;
8536;SDS011;4306;50.210;10.628;2023-08-12T02:42:02;4.30;;;3.63;;
8536;SDS011;4306;50.210;10.628;2023-08-12T02:44:29;5.35;;;3.47;;
8536;SDS011;4306;50.210;10.628;2023-08-12T02:46:57;6.20;;;3.75;;
8536;SDS011;4306;50.210;10.628;2023-08-12T02:49:24;5.20;;;3.40;;
8536;SDS011;4306;50.210;10.628;2023-08-12T02:51:51;5.28;;;3.53;;
8536;SDS011;4306;50.210;10.628;2023-08-12T02:54:18;4.78;;;3.60;;
8536;SDS011;4306;50.210;10.628;2023-08-12T02:56:45;4.70;;;3.38;;
8536;SDS011;4306;50.210;10.628;2023-08-12T02:59:12;4.88;;;3.33;;
8536;SDS011;4306;50.210;10.628;2023-08-12T03:01:40;8.43;;;3.55;;
8536;SDS011;4306;50.210;10.628;2023-08-12T03:04:09;5.22;;;3.60;;
8536;SDS011;4306;50.210;10.628;2023-08-12T03:06:36;4.38;;;3.33;;
8536;SDS011;4306;50.210;10.628;2023-08-12T03:09:03;5.32;;;3.50;;
8536;SDS011;4306;50.210;10.628;2023-08-12T03:11:30;4.60;;;3.50;;
8536;SDS011;4306;50.210;10.628;2023-08-12T03:13:57;5.18;;;4.07;;
8536;SDS011;4306;50.210;10.628;2023-08-12T03:16:24;4.65;;;3.67;;
8536;SDS011;4306;50.210;10.628;2023-08-12T03:18:51;5.07;;;3.38;;
8536;SDS011;4306;50.210;10.628;2023-08-12T03:21:19;4.65;;;3.40;;
8536;SDS011;4306;50.210;10.628;2023-08-12T03:23:46;4.95;;;3.30;;
8536;SDS011;4306;50.210;10.628;2023-08-12T03:26:13;6.00;;;3.58;;
8536;SDS011;4306;50.210;10.628;2023-08-12T03:28:40;5.72;;;3.90;;
8536;SDS011;4306;50.210;10.628;2023-08-12T03:31:07;5.28;;;3.55;;
8536;SDS011;4306;50.210;10.628;2023-08-12T03:33:34;4.13;;;3.28;;
8536;SDS011;4306;50.210;10.628;2023-08-12T03:36:01;6.07;;;3.20;;
8536;SDS011;4306;50.210;10.628;2023-08-12T03:38:29;4.88;;;3.65;;
8536;SDS011;4306;50.210;10.628;2023-08-12T03:40:56;4.57;;;3.47;;
8536;SDS011;4306;50.210;10.628;2023-08-12T03:43:23;5.78;;;4.15;;
8536;SDS011;4306;50.210;10.628;2023-08-12T03:45:50;5.80;;;4.07;;
8536;SDS011;4306;50.210;10.628;2023-08-12T03:48:17;5.82;;;3.33;;
8536;SDS011;4306;50.210;10.628;2023-08-12T03:50:44;7.97;;;4.07;;
8536;SDS011;4306;50.210;10.628;2023-08-12T03:53:12;5.28;;;3.85;;
8536;SDS011;4306;50.210;10.628;2023-08-12T03:55:41;7.03;;;3.90;;
8536;SDS011;4306;50.210;10.628;2023-08-12T03:58:07;4.97;;;3.78;;
8536;SDS011;4306;50.210;10.628;2023-08-12T04:00:34;6.18;;;3.50;;
8536;SDS011;4306;50.210;10.628;2023-08-12T04:03:06;5.75;;;3.53;;
8536;SDS011;4306;50.210;10.628;2023-08-12T04:05:33;5.43;;;3.70;;
8536;SDS011;4306;50.210;10.628;2023-08-12T04:08:00;6.20;;;3.58;;
8536;SDS011;4306;50.210;10.628;2023-08-12T04:10:27;5.03;;;3.45;;
8536;SDS011;4306;50.210;10.628;2023-08-12T04:12:55;7.20;;;3.55;;
8536;SDS011;4306;50.210;10.628;2023-08-12T04:15:22;5.32;;;3.75;;
8536;SDS011;4306;50.210;10.628;2023-08-12T04:17:49;5.13;;;3.85;;
8536;SDS011;4306;50.210;10.628;2023-08-12T04:20:16;5.07;;;3.13;;
8536;SDS011;4306;50.210;10.628;2023-08-12T04:22:44;6.90;;;4.25;;
8536;SDS011;4306;50.210;10.628;2023-08-12T04:25:10;9.38;;;4.00;;
8536;SDS011;4306;50.210;10.628;2023-08-12T04:27:37;5.80;;;4.07;;
8536;SDS011;4306;50.210;10.628;2023-08-12T04:30:07;5.07;;;3.63;;
8536;SDS011;4306;50.210;10.628;2023-08-12T04:32:34;7.57;;;3.95;;
8536;SDS011;4306;50.210;10.628;2023-08-12T04:35:01;5.63;;;3.97;;
8536;SDS011;4306;50.210;10.628;2023-08-12T04:37:28;7.93;;;3.88;;
8536;SDS011;4306;50.210;10.628;2023-08-12T04:39:57;7.32;;;4.35;;
8536;SDS011;4306;50.210;10.628;2023-08-12T04:42:24;5.90;;;3.92;;
8536;SDS011;4306;50.210;10.628;2023-08-12T04:44:51;7.05;;;4.00;;
8536;SDS011;4306;50.210;10.628;2023-08-12T04:47:19;5.75;;;3.88;;
8536;SDS011;4306;50.210;10.628;2023-08-12T04:49:46;5.25;;;3.78;;
8536;SDS011;4306;50.210;10.628;2023-08-12T04:52:13;7.43;;;4.05;;
8536;SDS011;4306;50.210;10.628;2023-08-12T04:54:40;5.70;;;4.28;;
8536;SDS011;4306;50.210;10.628;2023-08-12T04:57:07;7.03;;;4.18;;
8536;SDS011;4306;50.210;10.628;2023-08-12T04:59:35;5.43;;;3.97;;
8536;SDS011;4306;50.210;10.628;2023-08-12T05:02:02;4.45;;;3.50;;
8536;SDS011;4306;50.210;10.628;2023-08-12T05:04:30;4.78;;;3.78;;
8536;SDS011;4306;50.210;10.628;2023-08-12T05:06:57;5.32;;;3.65;;
8536;SDS011;4306;50.210;10.628;2023-08-12T05:09:24;5.82;;;3.85;;
8536;SDS011;4306;50.210;10.628;2023-08-12T05:11:51;5.47;;;4.10;;
8536;SDS011;4306;50.210;10.628;2023-08-12T05:14:18;4.85;;;3.42;;
8536;SDS011;4306;50.210;10.628;2023-08-12T05:16:45;5.85;;;3.53;;
8536;SDS011;4306;50.210;10.628;2023-08-12T05:19:12;4.72;;;3.47;;
8536;SDS011;4306;50.210;10.628;2023-08-12T05:21:41;7.88;;;3.88;;
8536;SDS011;4306;50.210;10.628;2023-08-12T05:24:08;6.78;;;4.50;;
8536;SDS011;4306;50.210;10.628;2023-08-12T05:26:36;6.88;;;4.70;;
8536;SDS011;4306;50.210;10.628;2023-08-12T05:29:03;8.35;;;4.45;;
8536;SDS011;4306;50.210;10.628;2023-08-12T05:31:30;5.18;;;3.95;;
8536;SDS011;4306;50.210;10.628;2023-08-12T05:33:57;8.55;;;4.28;;
8536;SDS011;4306;50.210;10.628;2023-08-12T05:36:24;6.93;;;3.90;;
8536;SDS011;4306;50.210;10.628;2023-08-12T05:38:52;4.40;;;3.58;;
8536;SDS011;4306;50.210;10.628;2023-08-12T05:41:19;4.80;;;3.50;;
8536;SDS011;4306;50.210;10.628;2023-08-12T05:43:47;6.15;;;3.72;;
8536;SDS011;4306;50.210;10.628;2023-08-12T05:46:14;8.02;;;4.35;;
8536;SDS011;4306;50.210;10.628;2023-08-12T05:48:41;6.55;;;5.10;;
8536;SDS011;4306;50.210;10.628;2023-08-12T05:51:08;7.05;;;5.95;;
8536;SDS011;4306;50.210;10.628;2023-08-12T05:53:35;7.57;;;5.72;;
8536;SDS011;4306;50.210;10.628;2023-08-12T05:56:04;5.70;;;5.00;;
8536;SDS011;4306;50.210;10.628;2023-08-12T05:58:31;4.80;;;3.38;;
8536;SDS011;4306;50.210;10.628;2023-08-12T06:00:58;6.45;;;3.45;;
8536;SDS011;4306;50.210;10.628;2023-08-12T06:03:25;6.13;;;3.50;;
8536;SDS011;4306;50.210;10.628;2023-08-12T06:05:52;4.50;;;3.17;;
8536;SDS011;4306;50.210;10.628;2023-08-12T06:08:19;6.43;;;3.33;;
8536;SDS011;4306;50.210;10.628;2023-08-12T06:10:46;6.95;;;3.60;;
8536;SDS011;4306;50.210;10.628;2023-08-12T06:13:14;6.43;;;3.83;;
8536;SDS011;4306;50.210;10.628;2023-08-12T06:15:41;5.45;;;3.30;;
8536;SDS011;4306;50.210;10.628;2023-08-12T06:18:08;7.75;;;3.75;;
8536;SDS011;4306;50.210;10.628;2023-08-12T06:20:35;4.72;;;3.13;;
8536;SDS011;4306;50.210;10.628;2023-08-12T06:23:02;5.95;;;3.60;;
8536;SDS011;4306;50.210;10.628;2023-08-12T06:25:29;5.70;;;3.60;;
8536;SDS011;4306;50.210;10.628;2023-08-12T06:27:56;5.50;;;3.50;;
8536;SDS011;4306;50.210;10.628;2023-08-12T06:30:25;4.75;;;3.45;;
8536;SDS011;4306;50.210;10.628;2023-08-12T06:32:52;5.15;;;3.20;;
8536;SDS011;4306;50.210;10.628;2023-08-12T06:35:19;4.57;;;3.47;;
8536;SDS011;4306;50.210;10.628;2023-08-12T06:37:45;5.05;;;3.90;;
8536;SDS011;4306;50.210;10.628;2023-08-12T06:40:13;7.88;;;4.35;;
8536;SDS011;4306;50.210;10.628;2023-08-12T06:42:40;5.07;;;3.67;;
8536;SDS011;4306;50.210;10.628;2023-08-12T06:45:07;4.75;;;3.75;;
8536;SDS011;4306;50.210;10.628;2023-08-12T06:47:36;4.35;;;3.22;;
8536;SDS011;4306;50.210;10.628;2023-08-12T06:50:03;7.32;;;3.60;;
8536;SDS011;4306;50.210;10.628;2023-08-12T06:52:30;5.60;;;3.60;;
8536;SDS011;4306;50.210;10.628;2023-08-12T06:54:57;5.30;;;3.88;;
8536;SDS011;4306;50.210;10.628;2023-08-12T06:57:24;3.60;;;3.05;;
8536;SDS011;4306;50.210;10.628;2023-08-12T06:59:51;4.35;;;3.40;;
8536;SDS011;4306;50.210;10.628;2023-08-12T07:02:18;5.47;;;3.55;;
8536;SDS011;4306;50.210;10.628;2023-08-12T07:04:47;5.15;;;3.85;;
8536;SDS011;4306;50.210;10.628;2023-08-12T07:07:14;8.88;;;3.67;;
8536;SDS011;4306;50.210;10.628;2023-08-12T07:09:40;6.68;;;4.18;;
8536;SDS011;4306;50.210;10.628;2023-08-12T07:12:07;5.70;;;3.50;;
8536;SDS011;4306;50.210;10.628;2023-08-12T07:14:34;5.45;;;4.07;;
8536;SDS011;4306;50.210;10.628;2023-08-12T07:17:02;4.75;;;3.22;;
8536;SDS011;4306;50.210;10.628;2023-08-12T07:19:29;5.40;;;3.90;;
8536;SDS011;4306;50.210;10.628;2023-08-12T07:21:57;4.60;;;3.40;;
8536;SDS011;4306;50.210;10.628;2023-08-12T07:24:24;4.43;;;3.10;;
8536;SDS011;4306;50.210;10.628;2023-08-12T07:26:51;4.70;;;3.00;;
8536;SDS011;4306;50.210;10.628;2023-08-12T07:29:18;6.10;;;3.30;;
8536;SDS011;4306;50.210;10.628;2023-08-12T07:31:45;4.78;;;3.13;;
8536;SDS011;4306;50.210;10.628;2023-08-12T07:34:11;4.53;;;3.10;;
8536;SDS011;4306;50.210;10.628;2023-08-12T07:36:38;3.50;;;2.78;;
8536;SDS011;4306;50.210;10.628;2023-08-12T07:39:07;4.25;;;2.83;;
8536;SDS011;4306;50.210;10.628;2023-08-12T07:41:34;4.15;;;3.25;;
8536;SDS011;4306;50.210;10.628;2023-08-12T07:44:01;8.27;;;3.08;;
8536;SDS011;4306;50.210;10.628;2023-08-12T07:46:28;4.60;;;3.38;;
8536;SDS011;4306;50.210;10.628;2023-08-12T07:48:55;4.38;;;3.00;;
8536;SDS011;4306;50.210;10.628;2023-08-12T07:51:22;4.32;;;3.05;;
8536;SDS011;4306;50.210;10.628;2023-08-12T07:53:49;4.40;;;2.90;;
8536;SDS011;4306;50.210;10.628;2023-08-12T07:56:18;3.95;;;2.92;;
8536;SDS011;4306;50.210;10.628;2023-08-12T07:58:44;5.43;;;2.72;;
8536;SDS011;4306;50.210;10.628;2023-08-12T08:01:12;5.40;;;3.53;;
8536;SDS011;4306;50.210;10.628;2023-08-12T08:03:39;5.97;;;2.90;;
8536;SDS011;4306;50.210;10.628;2023-08-12T08:06:06;6.60;;;2.85;;
8536;SDS011;4306;50.210;10.628;2023-08-12T08:08:33;5.22;;;3.15;;
8536;SDS011;4306;50.210;10.628;2023-08-12T08:11:00;4.07;;;2.55;;
8536;SDS011;4306;50.210;10.628;2023-08-12T08:13:28;4.50;;;2.55;;
8536;SDS011;4306;50.210;10.628;2023-08-12T08:15:55;6.13;;;3.30;;
8536;SDS011;4306;50.210;10.628;2023-08-12T08:18:22;4.95;;;2.95;;
8536;SDS011;4306;50.210;10.628;2023-08-12T08:20:49;4.72;;;2.85;;
8536;SDS011;4306;50.210;10.628;2023-08-12T08:23:16;4.82;;;2.50;;
8536;SDS011;4306;50.210;10.628;2023-08-12T08:25:43;5.63;;;2.83;;
8536;SDS011;4306;50.210;10.628;2023-08-12T08:28:10;6.07;;;2.40;;
8536;SDS011;4306;50.210;10.628;2023-08-12T08:30:39;4.15;;;2.72;;
8536;SDS011;4306;50.210;10.628;2023-08-12T08:33:06;6.53;;;2.60;;
8536;SDS011;4306;50.210;10.628;2023-08-12T08:35:32;4.82;;;3.00;;
8536;SDS011;4306;50.210;10.628;2023-08-12T08:37:59;3.53;;;2.63;;
8536;SDS011;4306;50.210;10.628;2023-08-12T08:40:26;4.70;;;3.25;;
8536;SDS011;4306;50.210;10.628;2023-08-12T08:42:53;3.92;;;2.70;;
8536;SDS011;4306;50.210;10.628;2023-08-12T08:45:24;5.80;;;2.95;;
8536;SDS011;4306;50.210;10.628;2023-08-12T08:47:52;5.30;;;2.58;;
8536;SDS011;4306;50.210;10.628;2023-08-12T08:50:20;4.55;;;2.78;;
8536;SDS011;4306;50.210;10.628;2023-08-12T08:52:48;3.88;;;2.55;;
8536;SDS011;4306;50.210;10.628;2023-08-12T08:55:17;4.30;;;2.72;;
8536;SDS011;4306;50.210;10.628;2023-08-12T08:57:44;3.70;;;2.40;;
8536;SDS011;4306;50.210;10.628;2023-08-12T09:00:12;7.00;;;2.67;;
8536;SDS011;4306;50.210;10.628;2023-08-12T09:02:39;3.95;;;2.60;;
8536;SDS011;4306;50.210;10.628;2023-08-12T09:05:09;5.25;;;2.83;;
8536;SDS011;4306;50.210;10.628;2023-08-12T09:07:36;4.40;;;2.67;;
8536;SDS011;4306;50.210;10.628;2023-08-12T09:10:05;5.43;;;2.85;;
8536;SDS011;4306;50.210;10.628;2023-08-12T09:12:35;3.97;;;2.50;;
8536;SDS011;4306;50.210;10.628;2023-08-12T09:15:02;4.10;;;2.80;;
8536;SDS011;4306;50.210;10.628;2023-08-12T09:17:31;3.58;;;2.40;;
8536;SDS011;4306;50.210;10.628;2023-08-12T09:19:58;4.82;;;2.70;;
8536;SDS011;4306;50.210;10.628;2023-08-12T09:22:27;5.70;;;2.90;;
8536;SDS011;4306;50.210;10.628;2023-08-12T09:24:56;3.38;;;2.60;;
8536;SDS011;4306;50.210;10.628;2023-08-12T09:27:23;4.43;;;2.78;;
8536;SDS011;4306;50.210;10.628;2023-08-12T09:29:51;4.28;;;2.97;;
8536;SDS011;4306;50.210;10.628;2023-08-12T09:32:22;6.85;;;2.80;;
8536;SDS011;4306;50.210;10.628;2023-08-12T09:34:50;4.32;;;2.90;;
8536;SDS011;4306;50.210;10.628;2023-08-12T09:37:17;5.10;;;2.90;;
8536;SDS011;4306;50.210;10.628;2023-08-12T09:39:46;3.80;;;2.83;;
8536;SDS011;4306;50.210;10.628;2023-08-12T09:42:15;3.83;;;2.70;;
8536;SDS011;4306;50.210;10.628;2023-08-12T09:44:42;3.83;;;2.70;;
8536;SDS011;4306;50.210;10.628;2023-08-12T09:47:09;6.10;;;3.00;;
8536;SDS011;4306;50.210;10.628;2023-08-12T09:49:37;3.50;;;2.78;;
8536;SDS011;4306;50.210;10.628;2023-08-12T09:52:05;4.00;;;2.83;;
8536;SDS011;4306;50.210;10.628;2023-08-12T09:54:33;4.07;;;3.10;;
8536;SDS011;4306;50.210;10.628;2023-08-12T09:57:03;3.80;;;2.88;;
8536;SDS011;4306;50.210;10.628;2023-08-12T09:59:32;4.78;;;2.90;;
8536;SDS011;4306;50.210;10.628;2023-08-12T10:02:00;4.00;;;2.80;;
8536;SDS011;4306;50.210;10.628;2023-08-12T10:04:32;4.45;;;3.00;;
8536;SDS011;4306;50.210;10.628;2023-08-12T10:07:03;4.13;;;2.75;;
8536;SDS011;4306;50.210;10.628;2023-08-12T10:09:31;7.53;;;3.22;;
8536;SDS011;4306;50.210;10.628;2023-08-12T10:11:58;4.85;;;3.10;;
8536;SDS011;4306;50.210;10.628;2023-08-12T10:14:27;6.65;;;3.42;;
8536;SDS011;4306;50.210;10.628;2023-08-12T10:16:54;4.47;;;3.08;;
8536;SDS011;4306;50.210;10.628;2023-08-12T10:19:22;4.03;;;3.00;;
8536;SDS011;4306;50.210;10.628;2023-08-12T10:21:53;3.35;;;2.67;;
8536;SDS011;4306;50.210;10.628;2023-08-12T10:24:21;4.78;;;3.20;;
8536;SDS011;4306;50.210;10.628;2023-08-12T10:26:51;4.88;;;3.20;;
8536;SDS011;4306;50.210;10.628;2023-08-12T10:29:18;4.63;;;3.05;;
8536;SDS011;4306;50.210;10.628;2023-08-12T10:31:47;4.40;;;3.45;;
8536;SDS011;4306;50.210;10.628;2023-08-12T10:34:18;4.10;;;3.20;;
8536;SDS011;4306;50.210;10.628;2023-08-12T10:36:46;5.45;;;3.20;;
8536;SDS011;4306;50.210;10.628;2023-08-12T10:39:13;5.78;;;2.70;;
8536;SDS011;4306;50.210;10.628;2023-08-12T10:41:43;4.93;;;2.92;;
8536;SDS011;4306;50.210;10.628;2023-08-12T10:44:17;4.80;;;3.08;;
8536;SDS011;4306;50.210;10.628;2023-08-12T10:46:51;5.03;;;2.83;;
8536;SDS011;4306;50.210;10.628;2023-08-12T10:49:18;5.32;;;3.05;;
8536;SDS011;4306;50.210;10.628;2023-08-12T10:51:47;4.32;;;3.03;;
8536;SDS011;4306;50.210;10.628;2023-08-12T10:54:15;5.45;;;3.10;;
8536;SDS011;4306;50.210;10.628;2023-08-12T10:59:52;7.45;;;3.53;;
8536;SDS011;4306;50.210;10.628;2023-08-12T11:02:25;5.43;;;2.95;;
8536;SDS011;4306;50.210;10.628;2023-08-12T11:04:54;5.75;;;3.55;;
8536;SDS011;4306;50.210;10.628;2023-08-12T11:07:28;4.35;;;3.20;;
8536;SDS011;4306;50.210;10.628;2023-08-12T11:10:03;4.70;;;3.50;;
8536;SDS011;4306;50.210;10.628;2023-08-12T11:12:33;5.00;;;3.40;;
8536;SDS011;4306;50.210;10.628;2023-08-12T11:15:01;4.30;;;3.05;;
8536;SDS011;4306;50.210;10.628;2023-08-12T11:17:34;8.90;;;3.15;;
8536;SDS011;4306;50.210;10.628;2023-08-12T11:20:03;4.65;;;3.05;;
8536;SDS011;4306;50.210;10.628;2023-08-12T11:22:32;4.47;;;3.05;;
8536;SDS011;4306;50.210;10.628;2023-08-12T11:25:02;5.00;;;3.40;;
8536;SDS011;4306;50.210;10.628;2023-08-12T11:27:34;5.03;;;2.80;;
8536;SDS011;4306;50.210;10.628;2023-08-12T11:30:03;4.47;;;3.10;;
8536;SDS011;4306;50.210;10.628;2023-08-12T11:32:31;4.20;;;2.63;;
8536;SDS011;4306;50.210;10.628;2023-08-12T11:34:59;3.85;;;2.83;;
8536;SDS011;4306;50.210;10.628;2023-08-12T11:37:28;4.38;;;2.90;;
8536;SDS011;4306;50.210;10.628;2023-08-12T11:39:55;4.93;;;3.20;;
8536;SDS011;4306;50.210;10.628;2023-08-12T11:42:22;5.32;;;3.10;;
8536;SDS011;4306;50.210;10.628;2023-08-12T11:44:49;6.22;;;2.97;;
8536;SDS011;4306;50.210;10.628;2023-08-12T11:47:16;3.47;;;2.58;;
8536;SDS011;4306;50.210;10.628;2023-08-12T11:49:43;3.80;;;3.10;;
8536;SDS011;4306;50.210;10.628;2023-08-12T11:52:11;6.05;;;3.08;;
8536;SDS011;4306;50.210;10.628;2023-08-12T11:54:38;3.90;;;2.63;;
8536;SDS011;4306;50.210;10.628;2023-08-12T11:57:06;7.05;;;3.65;;
8536;SDS011;4306;50.210;10.628;2023-08-12T11:59:33;4.68;;;2.85;;
8536;SDS011;4306;50.210;10.628;2023-08-12T12:02:01;6.75;;;3.15;;
8536;SDS011;4306;50.210;10.628;2023-08-12T12:04:30;5.00;;;3.08;;
8536;SDS011;4306;50.210;10.628;2023-08-12T12:06:57;5.07;;;2.60;;
8536;SDS011;4306;50.210;10.628;2023-08-12T12:09:26;4.20;;;2.90;;
8536;SDS011;4306;50.210;10.628;2023-08-12T12:11:56;4.90;;;2.97;;
8536;SDS011;4306;50.210;10.628;2023-08-12T12:14:24;4.88;;;2.95;;
8536;SDS011;4306;50.210;10.628;2023-08-12T12:16:51;4.00;;;2.92;;
8536;SDS011;4306;50.210;10.628;2023-08-12T12:19:18;4.43;;;2.75;;
8536;SDS011;4306;50.210;10.628;2023-08-12T12:21:47;4.43;;;2.90;;
8536;SDS011;4306;50.210;10.628;2023-08-12T12:24:15;5.13;;;3.38;;
8536;SDS011;4306;50.210;10.628;2023-08-12T12:26:43;3.80;;;2.90;;
8536;SDS011;4306;50.210;10.628;2023-08-12T12:29:11;3.63;;;2.67;;
8536;SDS011;4306;50.210;10.628;2023-08-12T12:31:39;6.63;;;3.03;;
8536;SDS011;4306;50.210;10.628;2023-08-12T12:34:07;4.40;;;2.78;;
8536;SDS011;4306;50.210;10.628;2023-08-12T12:36:35;8.35;;;2.80;;
8536;SDS011;4306;50.210;10.628;2023-08-12T12:39:03;3.88;;;2.60;;
8536;SDS011;4306;50.210;10.628;2023-08-12T12:41:30;3.65;;;2.63;;
8536;SDS011;4306;50.210;10.628;2023-08-12T12:43:59;4.00;;;2.67;;
8536;SDS011;4306;50.210;10.628;2023-08-12T12:46:26;4.50;;;2.83;;
8536;SDS011;4306;50.210;10.628;2023-08-12T12:48:53;4.93;;;2.60;;
8536;SDS011;4306;50.210;10.628;2023-08-12T12:51:20;5.97;;;3.22;;
8536;SDS011;4306;50.210;10.628;2023-08-12T12:53:47;5.70;;;2.97;;
8536;SDS011;4306;50.210;10.628;2023-08-12T12:56:14;4.68;;;2.72;;
8536;SDS011;4306;50.210;10.628;2023-08-12T12:58:41;7.80;;;3.30;;
8536;SDS011;4306;50.210;10.628;2023-08-12T13:01:09;2.30;;;1.52;;
8536;SDS011;4306;50.210;10.628;2023-08-12T13:03:36;4.47;;;2.13;;
8536;SDS011;4306;50.210;10.628;2023-08-12T13:06:03;3.70;;;1.77;;
8536;SDS011;4306;50.210;10.628;2023-08-12T13:08:30;6.85;;;3.70;;
8536;SDS011;4306;50.210;10.628;2023-08-12T13:10:57;6.65;;;1.77;;
8536;SDS011;4306;50.210;10.628;2023-08-12T13:13:24;3.50;;;1.58;;
8536;SDS011;4306;50.210;10.628;2023-08-12T13:15:51;3.10;;;1.00;;
8536;SDS011;4306;50.210;10.628;2023-08-12T13:18:19;3.90;;;1.20;;
8536;SDS011;4306;50.210;10.628;2023-08-12T13:20:46;2.63;;;1.13;;
8536;SDS011;4306;50.210;10.628;2023-08-12T13:23:13;2.70;;;0.93;;
8536;SDS011;4306;50.210;10.628;2023-08-12T13:25:40;2.10;;;0.73;;
8536;SDS011;4306;50.210;10.628;2023-08-12T13:28:08;1.65;;;0.70;;
8536;SDS011;4306;50.210;10.628;2023-08-12T13:30:35;3.28;;;0.75;;
8536;SDS011;4306;50.210;10.628;2023-08-12T13:33:02;1.20;;;0.50;;
8536;SDS011;4306;50.210;10.628;2023-08-12T13:35:31;2.67;;;1.20;;
8536;SDS011;4306;50.210;10.628;2023-08-12T13:37:58;2.08;;;0.85;;
8536;SDS011;4306;50.210;10.628;2023-08-12T13:40:25;2.90;;;0.75;;
8536;SDS011;4306;50.210;10.628;2023-08-12T13:42:52;4.38;;;0.82;;
8536;SDS011;4306;50.210;10.628;2023-08-12T13:45:19;4.07;;;0.90;;
8536;SDS011;4306;50.210;10.628;2023-08-12T13:47:46;2.83;;;1.30;;
8536;SDS011;4306;50.210;10.628;2023-08-12T13:50:13;1.38;;;0.63;;
8536;SDS011;4306;50.210;10.628;2023-08-12T13:52:41;2.63;;;1.00;;
8536;SDS011;4306;50.210;10.628;2023-08-12T13:55:08;2.08;;;0.68;;
8536;SDS011;4306;50.210;10.628;2023-08-12T13:57:35;1.38;;;0.57;;
8536;SDS011;4306;50.210;10.628;2023-08-12T14:00:03;1.92;;;0.98;;
8536;SDS011;4306;50.210;10.628;2023-08-12T14:02:34;2.78;;;0.80;;
8536;SDS011;4306;50.210;10.628;2023-08-12T14:05:01;3.08;;;1.02;;
8536;SDS011;4306;50.210;10.628;2023-08-12T14:07:29;2.83;;;0.82;;
8536;SDS011;4306;50.210;10.628;2023-08-12T14:09:58;1.75;;;0.90;;
8536;SDS011;4306;50.210;10.628;2023-08-12T14:12:25;5.05;;;1.00;;
8536;SDS011;4306;50.210;10.628;2023-08-12T14:14:52;1.65;;;0.80;;
8536;SDS011;4306;50.210;10.628;2023-08-12T14:17:19;2.78;;;0.82;;
8536;SDS011;4306;50.210;10.628;2023-08-12T14:19:48;3.35;;;0.90;;
8536;SDS011;4306;50.210;10.628;2023-08-12T14:22:16;2.95;;;0.88;;
8536;SDS011;4306;50.210;10.628;2023-08-12T14:24:43;2.67;;;0.90;;
8536;SDS011;4306;50.210;10.628;2023-08-12T14:27:12;2.45;;;1.45;;
8536;SDS011;4306;50.210;10.628;2023-08-12T14:29:39;2.22;;;1.80;;
8536;SDS011;4306;50.210;10.628;2023-08-12T14:32:05;2.97;;;1.60;;
8536;SDS011;4306;50.210;10.628;2023-08-12T14:34:33;3.47;;;1.40;;
8536;SDS011;4306;50.210;10.628;2023-08-12T14:36:59;3.55;;;1.10;;
8536;SDS011;4306;50.210;10.628;2023-08-12T14:39:27;2.33;;;0.73;;
8536;SDS011;4306;50.210;10.628;2023-08-12T14:41:54;2.25;;;0.90;;
8536;SDS011;4306;50.210;10.628;2023-08-12T14:44:23;1.48;;;0.80;;
8536;SDS011;4306;50.210;10.628;2023-08-12T14:46:49;2.35;;;0.88;;
8536;SDS011;4306;50.210;10.628;2023-08-12T14:49:17;1.08;;;0.90;;
8536;SDS011;4306;50.210;10.628;2023-08-12T14:51:44;1.95;;;1.33;;
8536;SDS011;4306;50.210;10.628;2023-08-12T14:54:11;5.72;;;4.05;;
8536;SDS011;4306;50.210;10.628;2023-08-12T14:56:38;3.53;;;1.88;;
8536;SDS011;4306;50.210;10.628;2023-08-12T14:59:04;4.07;;;2.00;;
8536;SDS011;4306;50.210;10.628;2023-08-12T15:01:33;1.92;;;1.30;;
8536;SDS011;4306;50.210;10.628;2023-08-12T15:04:00;3.47;;;1.25;;
8536;SDS011;4306;50.210;10.628;2023-08-12T15:06:27;3.10;;;1.27;;